sensor_id;sensor_type;location;lat;lon;timestamp;noise_LAeq;noise_LA_min;noise_LA_max;noise_LA01;noise_LA95
74292;Laerm;62687;55.738;37.516;2023-05-07T00:00:49;70.15;62.75;75.67;;
74292;Laerm;62687;55.738;37.516;2023-05-07T00:03:33;68.77;60.89;75.22;;
74292;Laerm;62687;55.738;37.516;2023-05-07T00:06:17;69.68;63.62;75.23;;
74292;Laerm;62687;55.738;37.516;2023-05-07T00:09:02;69.24;63.06;75.22;;
74292;Laerm;62687;55.738;37.516;2023-05-07T00:11:47;69.42;58.77;79.49;;
74292;Laerm;62687;55.738;37.516;2023-05-07T00:14:31;69.96;63.07;77.70;;
74292;Laerm;62687;55.738;37.516;2023-05-07T00:17:15;68.40;58.70;74.74;;
74292;Laerm;62687;55.738;37.516;2023-05-07T00:19:59;69.89;63.38;76.28;;
74292;Laerm;62687;55.738;37.516;2023-05-07T00:22:43;69.26;62.95;75.26;;
74292;Laerm;62687;55.738;37.516;2023-05-07T00:25:27;69.22;63.10;77.92;;
74292;Laerm;62687;55.738;37.516;2023-05-07T00:28:11;68.61;62.07;76.22;;
74292;Laerm;62687;55.738;37.516;2023-05-07T00:30:55;67.37;59.51;73.17;;
74292;Laerm;62687;55.738;37.516;2023-05-07T00:33:39;69.27;63.21;76.37;;
74292;Laerm;62687;55.738;37.516;2023-05-07T00:36:23;68.77;60.88;74.51;;
74292;Laerm;62687;55.738;37.516;2023-05-07T00:39:07;69.21;62.87;74.88;;
74292;Laerm;62687;55.738;37.516;2023-05-07T00:41:51;68.12;58.69;74.41;;
74292;Laerm;62687;55.738;37.516;2023-05-07T00:44:36;69.54;63.08;77.56;;
74292;Laerm;62687;55.738;37.516;2023-05-07T00:47:19;68.78;62.14;73.53;;
74292;Laerm;62687;55.738;37.516;2023-05-07T00:50:04;69.60;62.16;81.92;;
74292;Laerm;62687;55.738;37.516;2023-05-07T00:52:49;69.12;61.79;75.23;;
74292;Laerm;62687;55.738;37.516;2023-05-07T00:55:35;69.01;57.83;76.76;;
74292;Laerm;62687;55.738;37.516;2023-05-07T00:58:20;68.51;61.99;73.55;;
74292;Laerm;62687;55.738;37.516;2023-05-07T01:01:05;68.05;58.91;73.85;;
74292;Laerm;62687;55.738;37.516;2023-05-07T01:03:48;68.70;60.76;74.85;;
74292;Laerm;62687;55.738;37.516;2023-05-07T01:06:33;69.50;60.84;80.19;;
74292;Laerm;62687;55.738;37.516;2023-05-07T01:09:17;68.40;62.25;74.59;;
74292;Laerm;62687;55.738;37.516;2023-05-07T01:12:04;69.32;62.00;74.62;;
74292;Laerm;62687;55.738;37.516;2023-05-07T01:14:48;69.32;61.42;81.38;;
74292;Laerm;62687;55.738;37.516;2023-05-07T01:17:39;68.97;58.41;74.30;;
74292;Laerm;62687;55.738;37.516;2023-05-07T01:20:24;70.03;63.30;75.99;;
74292;Laerm;62687;55.738;37.516;2023-05-07T01:23:10;69.64;61.88;76.91;;
74292;Laerm;62687;55.738;37.516;2023-05-07T01:25:55;69.72;63.99;75.70;;
74292;Laerm;62687;55.738;37.516;2023-05-07T01:28:39;70.53;64.48;80.06;;
74292;Laerm;62687;55.738;37.516;2023-05-07T01:31:24;70.43;63.55;77.46;;
74292;Laerm;62687;55.738;37.516;2023-05-07T01:34:09;68.74;60.28;74.34;;
74292;Laerm;62687;55.738;37.516;2023-05-07T01:36:56;69.58;62.58;78.40;;
74292;Laerm;62687;55.738;37.516;2023-05-07T01:39:42;69.67;64.51;75.54;;
74292;Laerm;62687;55.738;37.516;2023-05-07T01:42:28;69.86;63.09;75.32;;
74292;Laerm;62687;55.738;37.516;2023-05-07T01:45:13;69.94;62.11;75.70;;
74292;Laerm;62687;55.738;37.516;2023-05-07T01:48:04;69.09;60.79;75.00;;
74292;Laerm;62687;55.738;37.516;2023-05-07T01:50:48;69.39;62.24;75.50;;
74292;Laerm;62687;55.738;37.516;2023-05-07T01:53:39;70.90;61.16;75.81;;
74292;Laerm;62687;55.738;37.516;2023-05-07T01:56:25;69.88;64.28;78.07;;
74292;Laerm;62687;55.738;37.516;2023-05-07T01:59:09;71.39;64.39;83.58;;
74292;Laerm;62687;55.738;37.516;2023-05-07T02:01:53;70.66;64.55;76.38;;
74292;Laerm;62687;55.738;37.516;2023-05-07T02:04:37;70.08;60.77;81.17;;
74292;Laerm;62687;55.738;37.516;2023-05-07T02:07:21;69.34;61.53;77.21;;
74292;Laerm;62687;55.738;37.516;2023-05-07T02:10:06;70.73;64.61;77.34;;
74292;Laerm;62687;55.738;37.516;2023-05-07T02:12:50;70.23;64.62;75.32;;
74292;Laerm;62687;55.738;37.516;2023-05-07T02:15:34;70.01;63.72;84.16;;
74292;Laerm;62687;55.738;37.516;2023-05-07T02:18:18;70.01;64.39;77.21;;
74292;Laerm;62687;55.738;37.516;2023-05-07T02:21:02;70.05;62.48;77.22;;
74292;Laerm;62687;55.738;37.516;2023-05-07T02:23:46;69.79;64.11;77.36;;
74292;Laerm;62687;55.738;37.516;2023-05-07T02:26:30;69.67;64.38;76.53;;
74292;Laerm;62687;55.738;37.516;2023-05-07T02:29:15;68.75;60.52;74.22;;
74292;Laerm;62687;55.738;37.516;2023-05-07T02:31:59;70.52;62.55;78.58;;
74292;Laerm;62687;55.738;37.516;2023-05-07T02:34:43;70.07;61.10;82.36;;
74292;Laerm;62687;55.738;37.516;2023-05-07T02:37:28;70.04;62.65;75.49;;
74292;Laerm;62687;55.738;37.516;2023-05-07T02:40:12;69.72;62.62;76.07;;
74292;Laerm;62687;55.738;37.516;2023-05-07T02:42:56;69.27;61.02;77.85;;
74292;Laerm;62687;55.738;37.516;2023-05-07T02:45:40;69.87;63.42;78.30;;
74292;Laerm;62687;55.738;37.516;2023-05-07T02:48:24;70.78;63.80;81.73;;
74292;Laerm;62687;55.738;37.516;2023-05-07T02:51:08;69.60;63.15;75.58;;
74292;Laerm;62687;55.738;37.516;2023-05-07T02:53:52;69.67;61.93;74.53;;
74292;Laerm;62687;55.738;37.516;2023-05-07T02:56:36;70.00;63.46;78.24;;
74292;Laerm;62687;55.738;37.516;2023-05-07T02:59:20;69.63;62.88;75.99;;
74292;Laerm;62687;55.738;37.516;2023-05-07T03:02:04;69.71;61.61;75.98;;
74292;Laerm;62687;55.738;37.516;2023-05-07T03:04:48;70.11;62.59;83.09;;
74292;Laerm;62687;55.738;37.516;2023-05-07T03:07:32;70.01;62.22;75.85;;
74292;Laerm;62687;55.738;37.516;2023-05-07T03:10:16;70.11;61.12;76.45;;
74292;Laerm;62687;55.738;37.516;2023-05-07T03:13:01;70.36;63.78;77.45;;
74292;Laerm;62687;55.738;37.516;2023-05-07T03:15:45;70.68;63.80;78.37;;
74292;Laerm;62687;55.738;37.516;2023-05-07T03:18:29;70.76;62.11;77.22;;
74292;Laerm;62687;55.738;37.516;2023-05-07T03:21:13;70.17;64.34;76.50;;
74292;Laerm;62687;55.738;37.516;2023-05-07T03:23:57;69.90;62.44;74.63;;
74292;Laerm;62687;55.738;37.516;2023-05-07T03:26:41;70.40;64.69;75.55;;
74292;Laerm;62687;55.738;37.516;2023-05-07T03:29:25;69.96;63.75;76.90;;
74292;Laerm;62687;55.738;37.516;2023-05-07T03:32:09;70.22;62.90;75.52;;
74292;Laerm;62687;55.738;37.516;2023-05-07T03:34:54;70.10;62.86;79.07;;
74292;Laerm;62687;55.738;37.516;2023-05-07T03:37:39;70.49;61.20;76.53;;
74292;Laerm;62687;55.738;37.516;2023-05-07T03:40:24;69.97;63.63;74.91;;
74292;Laerm;62687;55.738;37.516;2023-05-07T03:43:07;70.75;64.39;76.15;;
74292;Laerm;62687;55.738;37.516;2023-05-07T03:45:52;70.46;65.05;77.97;;
74292;Laerm;62687;55.738;37.516;2023-05-07T03:48:35;70.20;62.07;76.73;;
74292;Laerm;62687;55.738;37.516;2023-05-07T03:51:19;70.73;65.11;80.86;;
74292;Laerm;62687;55.738;37.516;2023-05-07T03:54:04;70.26;65.00;75.39;;
74292;Laerm;62687;55.738;37.516;2023-05-07T03:56:48;70.30;63.67;81.61;;
74292;Laerm;62687;55.738;37.516;2023-05-07T03:59:32;70.20;63.29;77.09;;
74292;Laerm;62687;55.738;37.516;2023-05-07T04:02:16;70.56;63.55;77.56;;
74292;Laerm;62687;55.738;37.516;2023-05-07T04:05:00;72.13;63.85;87.61;;
74292;Laerm;62687;55.738;37.516;2023-05-07T04:07:45;70.46;62.42;76.55;;
74292;Laerm;62687;55.738;37.516;2023-05-07T04:10:29;70.69;63.18;78.40;;
74292;Laerm;62687;55.738;37.516;2023-05-07T04:13:13;71.14;63.89;77.84;;
74292;Laerm;62687;55.738;37.516;2023-05-07T04:15:57;69.59;61.70;74.68;;
74292;Laerm;62687;55.738;37.516;2023-05-07T04:18:41;71.28;65.58;76.26;;
74292;Laerm;62687;55.738;37.516;2023-05-07T04:21:25;70.66;63.87;75.65;;
74292;Laerm;62687;55.738;37.516;2023-05-07T04:24:10;71.02;64.91;79.29;;
74292;Laerm;62687;55.738;37.516;2023-05-07T04:26:54;70.47;64.81;79.58;;
74292;Laerm;62687;55.738;37.516;2023-05-07T04:29:38;71.35;64.07;79.67;;
74292;Laerm;62687;55.738;37.516;2023-05-07T04:32:26;70.72;62.79;75.65;;
74292;Laerm;62687;55.738;37.516;2023-05-07T04:39:09;71.67;65.46;79.23;;
74292;Laerm;62687;55.738;37.516;2023-05-07T04:41:54;70.54;63.66;81.76;;
74292;Laerm;62687;55.738;37.516;2023-05-07T04:44:39;71.30;64.28;90.02;;
74292;Laerm;62687;55.738;37.516;2023-05-07T04:47:24;71.82;63.12;82.38;;
74292;Laerm;62687;55.738;37.516;2023-05-07T04:50:08;70.88;64.36;76.34;;
74292;Laerm;62687;55.738;37.516;2023-05-07T04:52:52;70.81;64.18;76.49;;
74292;Laerm;62687;55.738;37.516;2023-05-07T04:55:36;71.63;66.44;76.31;;
74292;Laerm;62687;55.738;37.516;2023-05-07T04:58:20;70.47;64.92;76.07;;
74292;Laerm;62687;55.738;37.516;2023-05-07T05:01:04;72.10;65.24;85.81;;
74292;Laerm;62687;55.738;37.516;2023-05-07T05:03:49;71.22;66.01;75.52;;
74292;Laerm;62687;55.738;37.516;2023-05-07T05:06:33;71.68;66.65;78.49;;
74292;Laerm;62687;55.738;37.516;2023-05-07T05:09:17;71.21;65.71;84.97;;
74292;Laerm;62687;55.738;37.516;2023-05-07T05:12:01;71.46;65.09;79.35;;
74292;Laerm;62687;55.738;37.516;2023-05-07T05:14:46;71.98;67.07;76.92;;
74292;Laerm;62687;55.738;37.516;2023-05-07T05:17:30;71.80;66.40;76.31;;
74292;Laerm;62687;55.738;37.516;2023-05-07T05:20:14;71.98;65.70;78.43;;
74292;Laerm;62687;55.738;37.516;2023-05-07T05:22:59;72.29;63.95;82.74;;
74292;Laerm;62687;55.738;37.516;2023-05-07T05:25:43;70.55;64.25;75.76;;
74292;Laerm;62687;55.738;37.516;2023-05-07T05:28:27;72.19;67.55;84.71;;
74292;Laerm;62687;55.738;37.516;2023-05-07T05:31:12;72.79;66.94;78.30;;
74292;Laerm;62687;55.738;37.516;2023-05-07T05:33:56;71.07;64.22;76.02;;
74292;Laerm;62687;55.738;37.516;2023-05-07T05:36:39;72.03;65.29;76.76;;
74292;Laerm;62687;55.738;37.516;2023-05-07T05:39:24;72.24;65.34;79.19;;
74292;Laerm;62687;55.738;37.516;2023-05-07T05:42:07;72.67;67.19;77.39;;
74292;Laerm;62687;55.738;37.516;2023-05-07T05:44:51;71.91;66.43;78.69;;
74292;Laerm;62687;55.738;37.516;2023-05-07T05:47:35;72.07;67.14;79.34;;
74292;Laerm;62687;55.738;37.516;2023-05-07T05:50:19;72.03;66.43;78.43;;
74292;Laerm;62687;55.738;37.516;2023-05-07T05:53:03;71.86;64.31;82.12;;
74292;Laerm;62687;55.738;37.516;2023-05-07T05:55:48;72.74;67.07;77.41;;
74292;Laerm;62687;55.738;37.516;2023-05-07T05:58:32;71.37;65.27;76.94;;
74292;Laerm;62687;55.738;37.516;2023-05-07T06:01:17;71.40;63.83;77.75;;
74292;Laerm;62687;55.738;37.516;2023-05-07T06:04:02;72.36;67.01;78.34;;
74292;Laerm;62687;55.738;37.516;2023-05-07T06:06:46;71.75;65.98;77.52;;
74292;Laerm;62687;55.738;37.516;2023-05-07T06:09:30;72.15;65.97;78.66;;
74292;Laerm;62687;55.738;37.516;2023-05-07T06:12:14;71.97;65.59;79.82;;
74292;Laerm;62687;55.738;37.516;2023-05-07T06:14:59;72.35;66.77;77.35;;
74292;Laerm;62687;55.738;37.516;2023-05-07T06:17:43;72.02;66.67;76.51;;
74292;Laerm;62687;55.738;37.516;2023-05-07T06:20:27;72.02;64.98;77.43;;
74292;Laerm;62687;55.738;37.516;2023-05-07T06:23:11;71.31;64.13;76.12;;
74292;Laerm;62687;55.738;37.516;2023-05-07T06:25:54;72.05;67.13;77.90;;
74292;Laerm;62687;55.738;37.516;2023-05-07T06:28:38;72.16;66.66;77.04;;
74292;Laerm;62687;55.738;37.516;2023-05-07T06:31:22;72.49;66.57;79.09;;
74292;Laerm;62687;55.738;37.516;2023-05-07T06:34:07;72.18;66.92;77.08;;
74292;Laerm;62687;55.738;37.516;2023-05-07T06:36:51;72.21;67.67;77.76;;
74292;Laerm;62687;55.738;37.516;2023-05-07T06:39:36;71.64;64.80;79.54;;
74292;Laerm;62687;55.738;37.516;2023-05-07T06:42:20;72.72;66.01;82.25;;
74292;Laerm;62687;55.738;37.516;2023-05-07T06:45:05;72.23;66.13;76.49;;
74292;Laerm;62687;55.738;37.516;2023-05-07T06:47:50;72.10;65.64;80.53;;
74292;Laerm;62687;55.738;37.516;2023-05-07T06:50:34;72.92;67.50;84.69;;
74292;Laerm;62687;55.738;37.516;2023-05-07T06:53:19;71.75;67.11;81.11;;
74292;Laerm;62687;55.738;37.516;2023-05-07T06:56:04;71.81;67.74;79.86;;
74292;Laerm;62687;55.738;37.516;2023-05-07T06:58:48;72.19;66.28;80.43;;
74292;Laerm;62687;55.738;37.516;2023-05-07T07:01:33;72.65;67.64;76.97;;
74292;Laerm;62687;55.738;37.516;2023-05-07T07:04:18;71.75;65.14;79.48;;
74292;Laerm;62687;55.738;37.516;2023-05-07T07:07:02;72.12;67.37;76.33;;
74292;Laerm;62687;55.738;37.516;2023-05-07T07:09:49;71.94;66.25;85.03;;
74292;Laerm;62687;55.738;37.516;2023-05-07T07:12:33;71.59;66.69;78.63;;
74292;Laerm;62687;55.738;37.516;2023-05-07T07:15:19;72.69;67.79;76.90;;
74292;Laerm;62687;55.738;37.516;2023-05-07T07:18:04;72.19;67.24;76.78;;
74292;Laerm;62687;55.738;37.516;2023-05-07T07:20:49;72.80;68.10;77.53;;
74292;Laerm;62687;55.738;37.516;2023-05-07T07:23:35;72.82;68.70;77.47;;
74292;Laerm;62687;55.738;37.516;2023-05-07T07:33:42;71.84;65.73;78.30;;
74292;Laerm;62687;55.738;37.516;2023-05-07T07:39:22;71.97;67.05;76.67;;
74292;Laerm;62687;55.738;37.516;2023-05-07T07:45:40;71.38;64.59;83.60;;
74292;Laerm;62687;55.738;37.516;2023-05-07T07:48:24;71.23;65.71;88.28;;
74292;Laerm;62687;55.738;37.516;2023-05-07T07:51:08;71.29;63.84;82.86;;
74292;Laerm;62687;55.738;37.516;2023-05-07T07:53:52;71.64;65.29;76.40;;
74292;Laerm;62687;55.738;37.516;2023-05-07T07:56:36;72.22;65.72;77.98;;
74292;Laerm;62687;55.738;37.516;2023-05-07T07:59:21;75.44;66.78;94.41;;
74292;Laerm;62687;55.738;37.516;2023-05-07T08:02:05;71.87;66.36;76.98;;
74292;Laerm;62687;55.738;37.516;2023-05-07T08:04:50;71.68;66.50;77.63;;
74292;Laerm;62687;55.738;37.516;2023-05-07T08:07:34;72.35;67.22;77.72;;
74292;Laerm;62687;55.738;37.516;2023-05-07T08:10:18;71.87;66.33;76.18;;
74292;Laerm;62687;55.738;37.516;2023-05-07T08:13:06;72.17;66.24;78.35;;
74292;Laerm;62687;55.738;37.516;2023-05-07T08:15:50;71.81;66.87;78.86;;
74292;Laerm;62687;55.738;37.516;2023-05-07T08:18:34;71.49;66.18;78.59;;
74292;Laerm;62687;55.738;37.516;2023-05-07T08:21:18;72.59;67.83;77.61;;
74292;Laerm;62687;55.738;37.516;2023-05-07T08:24:03;71.54;66.15;78.81;;
74292;Laerm;62687;55.738;37.516;2023-05-07T08:26:47;72.29;65.18;79.38;;
74292;Laerm;62687;55.738;37.516;2023-05-07T08:29:31;72.40;65.69;84.96;;
74292;Laerm;62687;55.738;37.516;2023-05-07T08:32:15;71.35;62.82;76.65;;
74292;Laerm;62687;55.738;37.516;2023-05-07T08:35:00;72.12;67.38;78.15;;
74292;Laerm;62687;55.738;37.516;2023-05-07T08:37:44;72.90;67.05;77.10;;
74292;Laerm;62687;55.738;37.516;2023-05-07T08:40:29;72.06;66.85;76.53;;
74292;Laerm;62687;55.738;37.516;2023-05-07T08:43:14;72.64;66.86;77.99;;
74292;Laerm;62687;55.738;37.516;2023-05-07T08:46:00;72.98;68.14;81.10;;
74292;Laerm;62687;55.738;37.516;2023-05-07T08:48:50;72.34;68.06;77.35;;
74292;Laerm;62687;55.738;37.516;2023-05-07T08:51:35;72.20;66.58;76.20;;
74292;Laerm;62687;55.738;37.516;2023-05-07T08:54:21;71.68;66.56;77.88;;
74292;Laerm;62687;55.738;37.516;2023-05-07T08:57:05;72.47;66.56;82.91;;
74292;Laerm;62687;55.738;37.516;2023-05-07T08:59:50;72.07;65.90;77.61;;
74292;Laerm;62687;55.738;37.516;2023-05-07T09:02:37;71.37;65.11;76.34;;
74292;Laerm;62687;55.738;37.516;2023-05-07T09:05:21;71.95;67.59;77.06;;
74292;Laerm;62687;55.738;37.516;2023-05-07T09:08:07;72.81;67.65;77.80;;
74292;Laerm;62687;55.738;37.516;2023-05-07T09:10:52;72.60;67.31;80.17;;
74292;Laerm;62687;55.738;37.516;2023-05-07T09:13:37;72.80;66.86;80.60;;
74292;Laerm;62687;55.738;37.516;2023-05-07T09:16:22;72.95;68.08;78.93;;
74292;Laerm;62687;55.738;37.516;2023-05-07T09:19:05;72.39;67.18;78.77;;
74292;Laerm;62687;55.738;37.516;2023-05-07T09:21:50;73.07;67.77;77.31;;
74292;Laerm;62687;55.738;37.516;2023-05-07T09:24:47;72.72;67.89;77.45;;
74292;Laerm;62687;55.738;37.516;2023-05-07T09:27:32;72.48;68.14;80.02;;
74292;Laerm;62687;55.738;37.516;2023-05-07T09:30:16;72.28;67.06;76.85;;
74292;Laerm;62687;55.738;37.516;2023-05-07T09:33:01;72.42;67.76;79.65;;
74292;Laerm;62687;55.738;37.516;2023-05-07T09:35:46;72.68;67.02;77.09;;
74292;Laerm;62687;55.738;37.516;2023-05-07T09:38:32;73.04;68.56;79.10;;
74292;Laerm;62687;55.738;37.516;2023-05-07T09:41:16;72.61;66.24;87.00;;
74292;Laerm;62687;55.738;37.516;2023-05-07T09:44:01;72.56;67.77;76.77;;
74292;Laerm;62687;55.738;37.516;2023-05-07T09:46:45;71.04;66.73;75.02;;
74292;Laerm;62687;55.738;37.516;2023-05-07T09:49:33;71.93;66.97;78.97;;
74292;Laerm;62687;55.738;37.516;2023-05-07T09:52:19;72.90;68.78;77.26;;
74292;Laerm;62687;55.738;37.516;2023-05-07T09:55:05;72.71;67.11;89.34;;
74292;Laerm;62687;55.738;37.516;2023-05-07T09:57:53;72.80;68.68;81.28;;
74292;Laerm;62687;55.738;37.516;2023-05-07T10:00:39;71.20;65.17;76.20;;
74292;Laerm;62687;55.738;37.516;2023-05-07T10:06:56;72.66;67.54;82.81;;
74292;Laerm;62687;55.738;37.516;2023-05-07T10:09:53;72.06;66.38;78.79;;
74292;Laerm;62687;55.738;37.516;2023-05-07T10:16:23;72.43;68.31;77.17;;
74292;Laerm;62687;55.738;37.516;2023-05-07T10:19:08;71.91;67.41;77.50;;
74292;Laerm;62687;55.738;37.516;2023-05-07T10:21:59;71.56;65.96;77.53;;
74292;Laerm;62687;55.738;37.516;2023-05-07T10:24:47;72.11;66.74;80.54;;
74292;Laerm;62687;55.738;37.516;2023-05-07T10:27:33;71.84;67.39;77.73;;
74292;Laerm;62687;55.738;37.516;2023-05-07T10:33:24;72.05;65.89;78.14;;
74292;Laerm;62687;55.738;37.516;2023-05-07T10:36:10;71.79;66.39;83.72;;
74292;Laerm;62687;55.738;37.516;2023-05-07T10:38:55;71.38;66.36;75.71;;
74292;Laerm;62687;55.738;37.516;2023-05-07T10:41:39;72.37;67.25;76.78;;
74292;Laerm;62687;55.738;37.516;2023-05-07T10:44:27;72.20;65.56;77.32;;
74292;Laerm;62687;55.738;37.516;2023-05-07T10:47:16;72.41;66.03;77.12;;
74292;Laerm;62687;55.738;37.516;2023-05-07T10:50:20;72.56;66.40;77.02;;
74292;Laerm;62687;55.738;37.516;2023-05-07T11:02:14;72.19;66.20;76.04;;
74292;Laerm;62687;55.738;37.516;2023-05-07T11:08:05;73.55;68.51;88.03;;
74292;Laerm;62687;55.738;37.516;2023-05-07T11:10:51;73.11;67.15;79.69;;
74292;Laerm;62687;55.738;37.516;2023-05-07T11:13:47;72.67;66.99;76.71;;
74292;Laerm;62687;55.738;37.516;2023-05-07T11:16:32;72.37;66.14;77.86;;
74292;Laerm;62687;55.738;37.516;2023-05-07T11:19:17;73.19;68.25;79.70;;
74292;Laerm;62687;55.738;37.516;2023-05-07T11:22:01;72.71;67.57;77.57;;
74292;Laerm;62687;55.738;37.516;2023-05-07T11:24:46;69.94;65.49;79.45;;
74292;Laerm;62687;55.738;37.516;2023-05-07T11:27:30;71.77;66.66;80.25;;
74292;Laerm;62687;55.738;37.516;2023-05-07T11:30:17;72.14;67.32;79.82;;
74292;Laerm;62687;55.738;37.516;2023-05-07T11:33:05;71.66;65.75;76.42;;
74292;Laerm;62687;55.738;37.516;2023-05-07T11:35:49;71.72;66.47;77.09;;
74292;Laerm;62687;55.738;37.516;2023-05-07T11:38:35;71.15;65.89;79.26;;
74292;Laerm;62687;55.738;37.516;2023-05-07T11:41:22;71.39;66.43;77.36;;
74292;Laerm;62687;55.738;37.516;2023-05-07T11:44:06;70.98;66.47;75.34;;
74292;Laerm;62687;55.738;37.516;2023-05-07T11:46:50;71.47;66.48;77.56;;
74292;Laerm;62687;55.738;37.516;2023-05-07T11:49:34;71.95;67.10;76.18;;
74292;Laerm;62687;55.738;37.516;2023-05-07T11:52:20;72.28;66.73;79.28;;
74292;Laerm;62687;55.738;37.516;2023-05-07T11:55:05;73.04;68.11;78.37;;
74292;Laerm;62687;55.738;37.516;2023-05-07T11:57:49;73.06;68.02;77.80;;
74292;Laerm;62687;55.738;37.516;2023-05-07T12:00:33;72.78;67.02;77.59;;
74292;Laerm;62687;55.738;37.516;2023-05-07T12:03:17;72.80;68.94;76.54;;
74292;Laerm;62687;55.738;37.516;2023-05-07T12:06:08;72.55;67.85;78.44;;
74292;Laerm;62687;55.738;37.516;2023-05-07T12:08:53;72.78;68.38;76.82;;
74292;Laerm;62687;55.738;37.516;2023-05-07T12:11:37;72.98;68.66;77.66;;
74292;Laerm;62687;55.738;37.516;2023-05-07T12:14:27;72.53;67.74;79.15;;
74292;Laerm;62687;55.738;37.516;2023-05-07T12:17:13;72.12;67.96;76.79;;
74292;Laerm;62687;55.738;37.516;2023-05-07T12:19:58;71.76;67.01;88.29;;
74292;Laerm;62687;55.738;37.516;2023-05-07T12:22:43;71.63;65.92;81.41;;
74292;Laerm;62687;55.738;37.516;2023-05-07T12:25:39;70.97;65.92;83.05;;
74292;Laerm;62687;55.738;37.516;2023-05-07T12:28:25;72.04;67.02;77.82;;
74292;Laerm;62687;55.738;37.516;2023-05-07T12:31:10;72.07;67.40;75.86;;
74292;Laerm;62687;55.738;37.516;2023-05-07T12:33:54;71.98;65.25;76.39;;
74292;Laerm;62687;55.738;37.516;2023-05-07T12:36:39;73.33;67.88;87.29;;
74292;Laerm;62687;55.738;37.516;2023-05-07T12:39:23;73.62;68.12;84.01;;
74292;Laerm;62687;55.738;37.516;2023-05-07T12:42:07;72.41;67.68;82.45;;
74292;Laerm;62687;55.738;37.516;2023-05-07T12:44:51;71.84;66.09;85.66;;
74292;Laerm;62687;55.738;37.516;2023-05-07T12:47:36;72.75;67.40;76.78;;
74292;Laerm;62687;55.738;37.516;2023-05-07T12:50:21;73.37;68.92;81.13;;
74292;Laerm;62687;55.738;37.516;2023-05-07T12:53:07;71.79;64.82;79.10;;
74292;Laerm;62687;55.738;37.516;2023-05-07T12:55:56;71.91;66.76;77.74;;
74292;Laerm;62687;55.738;37.516;2023-05-07T12:58:41;71.99;67.25;77.40;;
74292;Laerm;62687;55.738;37.516;2023-05-07T13:01:29;71.26;67.45;75.08;;
74292;Laerm;62687;55.738;37.516;2023-05-07T13:04:17;71.45;67.03;78.66;;
74292;Laerm;62687;55.738;37.516;2023-05-07T13:07:02;71.84;66.31;79.20;;
74292;Laerm;62687;55.738;37.516;2023-05-07T13:09:46;72.21;66.84;83.15;;
74292;Laerm;62687;55.738;37.516;2023-05-07T13:12:32;72.70;68.13;76.82;;
74292;Laerm;62687;55.738;37.516;2023-05-07T13:15:16;72.65;68.08;77.30;;
74292;Laerm;62687;55.738;37.516;2023-05-07T13:18:01;73.25;68.44;82.22;;
74292;Laerm;62687;55.738;37.516;2023-05-07T13:20:46;72.95;68.35;80.17;;
74292;Laerm;62687;55.738;37.516;2023-05-07T13:23:30;73.16;68.51;77.27;;
74292;Laerm;62687;55.738;37.516;2023-05-07T13:26:15;72.65;67.08;79.71;;
74292;Laerm;62687;55.738;37.516;2023-05-07T13:28:59;73.49;68.50;84.58;;
74292;Laerm;62687;55.738;37.516;2023-05-07T13:31:44;73.09;69.20;76.98;;
74292;Laerm;62687;55.738;37.516;2023-05-07T13:34:28;73.57;69.11;78.45;;
74292;Laerm;62687;55.738;37.516;2023-05-07T13:37:12;72.98;67.80;77.15;;
74292;Laerm;62687;55.738;37.516;2023-05-07T13:39:57;72.81;66.62;77.52;;
74292;Laerm;62687;55.738;37.516;2023-05-07T13:42:41;73.84;68.07;87.06;;
74292;Laerm;62687;55.738;37.516;2023-05-07T13:45:25;73.49;68.44;82.03;;
74292;Laerm;62687;55.738;37.516;2023-05-07T13:48:10;72.62;66.40;77.00;;
74292;Laerm;62687;55.738;37.516;2023-05-07T13:50:54;73.99;68.35;89.60;;
74292;Laerm;62687;55.738;37.516;2023-05-07T13:53:39;73.09;67.89;84.50;;
74292;Laerm;62687;55.738;37.516;2023-05-07T13:56:23;72.58;68.28;76.95;;
74292;Laerm;62687;55.738;37.516;2023-05-07T13:59:58;72.69;67.12;83.18;;
74292;Laerm;62687;55.738;37.516;2023-05-07T14:02:56;71.54;66.05;83.96;;
74292;Laerm;62687;55.738;37.516;2023-05-07T14:05:48;71.12;66.38;75.76;;
74292;Laerm;62687;55.738;37.516;2023-05-07T14:08:32;71.22;65.71;79.94;;
74292;Laerm;62687;55.738;37.516;2023-05-07T14:11:17;71.24;67.37;76.07;;
74292;Laerm;62687;55.738;37.516;2023-05-07T14:14:01;72.54;67.25;76.94;;
74292;Laerm;62687;55.738;37.516;2023-05-07T14:16:46;73.00;68.66;83.64;;
74292;Laerm;62687;55.738;37.516;2023-05-07T14:19:30;73.53;69.64;84.07;;
74292;Laerm;62687;55.738;37.516;2023-05-07T14:22:14;73.01;68.93;78.68;;
74292;Laerm;62687;55.738;37.516;2023-05-07T14:24:59;73.14;67.03;84.93;;
74292;Laerm;62687;55.738;37.516;2023-05-07T14:27:44;72.56;68.34;76.94;;
74292;Laerm;62687;55.738;37.516;2023-05-07T14:30:28;72.85;68.03;77.14;;
74292;Laerm;62687;55.738;37.516;2023-05-07T14:33:12;74.06;67.93;88.33;;
74292;Laerm;62687;55.738;37.516;2023-05-07T14:35:56;73.14;66.87;77.40;;
74292;Laerm;62687;55.738;37.516;2023-05-07T14:38:41;73.33;68.48;80.59;;
74292;Laerm;62687;55.738;37.516;2023-05-07T14:41:26;73.37;69.49;77.18;;
74292;Laerm;62687;55.738;37.516;2023-05-07T14:44:10;73.04;69.09;76.65;;
74292;Laerm;62687;55.738;37.516;2023-05-07T14:46:54;73.51;69.57;77.72;;
74292;Laerm;62687;55.738;37.516;2023-05-07T14:49:38;72.85;67.08;77.28;;
74292;Laerm;62687;55.738;37.516;2023-05-07T14:52:23;73.19;68.00;79.40;;
74292;Laerm;62687;55.738;37.516;2023-05-07T14:55:08;72.94;68.09;78.03;;
74292;Laerm;62687;55.738;37.516;2023-05-07T14:57:52;72.74;67.60;76.48;;
74292;Laerm;62687;55.738;37.516;2023-05-07T15:00:36;72.60;67.06;88.94;;
74292;Laerm;62687;55.738;37.516;2023-05-07T15:03:21;73.69;67.97;87.94;;
74292;Laerm;62687;55.738;37.516;2023-05-07T15:06:05;72.11;68.56;75.88;;
74292;Laerm;62687;55.738;37.516;2023-05-07T15:08:49;72.72;67.52;76.75;;
74292;Laerm;62687;55.738;37.516;2023-05-07T15:11:34;71.91;66.26;80.16;;
74292;Laerm;62687;55.738;37.516;2023-05-07T15:14:18;71.12;65.90;75.88;;
74292;Laerm;62687;55.738;37.516;2023-05-07T15:17:03;71.44;64.84;75.84;;
74292;Laerm;62687;55.738;37.516;2023-05-07T15:19:47;72.36;68.00;76.02;;
74292;Laerm;62687;55.738;37.516;2023-05-07T15:22:32;72.66;67.70;77.80;;
74292;Laerm;62687;55.738;37.516;2023-05-07T15:25:16;73.60;69.97;82.32;;
74292;Laerm;62687;55.738;37.516;2023-05-07T15:28:00;74.38;69.29;90.29;;
74292;Laerm;62687;55.738;37.516;2023-05-07T15:30:45;72.98;68.97;77.70;;
74292;Laerm;62687;55.738;37.516;2023-05-07T15:33:30;72.99;68.92;79.85;;
74292;Laerm;62687;55.738;37.516;2023-05-07T15:36:14;73.27;69.02;79.90;;
74292;Laerm;62687;55.738;37.516;2023-05-07T15:38:59;72.90;68.06;77.86;;
74292;Laerm;62687;55.738;37.516;2023-05-07T15:41:43;72.87;68.29;79.76;;
74292;Laerm;62687;55.738;37.516;2023-05-07T15:44:28;73.17;68.05;79.34;;
74292;Laerm;62687;55.738;37.516;2023-05-07T15:47:14;73.07;68.88;77.76;;
74292;Laerm;62687;55.738;37.516;2023-05-07T15:49:58;73.19;68.83;86.75;;